sensor_id;sensor_type;location;lat;lon;timestamp;pressure;altitude;pressure_sealevel;temperature;humidity
45247;BME280;31529;51.158;7.354;2022-11-18T00:00:18;96023.63;;;10.04;87.31
45247;BME280;31529;51.158;7.354;2022-11-18T00:00:49;96014.06;;;10.03;87.90
45247;BME280;31529;51.158;7.354;2022-11-18T00:01:21;96017.84;;;10.02;87.65
45247;BME280;31529;51.158;7.354;2022-11-18T00:01:53;96022.03;;;10.03;87.16
45247;BME280;31529;51.158;7.354;2022-11-18T00:02:24;96023.16;;;10.02;87.25
45247;BME280;31529;51.158;7.354;2022-11-18T00:02:55;96015.50;;;10.01;87.17
45247;BME280;31529;51.158;7.354;2022-11-18T00:03:26;96022.41;;;10.02;87.17
45247;BME280;31529;51.158;7.354;2022-11-18T00:03:57;96020.81;;;10.01;87.26
45247;BME280;31529;51.158;7.354;2022-11-18T00:04:28;96021.59;;;10.01;87.40
45247;BME280;31529;51.158;7.354;2022-11-18T00:04:59;96019.25;;;10.00;87.19
45247;BME280;31529;51.158;7.354;2022-11-18T00:05:30;96032.56;;;10.00;86.91
45247;BME280;31529;51.158;7.354;2022-11-18T00:06:02;96026.47;;;9.99;87.31
45247;BME280;31529;51.158;7.354;2022-11-18T00:06:33;96029.91;;;10.00;86.84
45247;BME280;31529;51.158;7.354;2022-11-18T00:07:04;96022.72;;;10.00;86.71
45247;BME280;31529;51.158;7.354;2022-11-18T00:07:35;96026.47;;;9.99;87.43
45247;BME280;31529;51.158;7.354;2022-11-18T00:08:07;96021.16;;;9.99;86.63
45247;BME280;31529;51.158;7.354;2022-11-18T00:08:38;96029.13;;;9.99;86.63
45247;BME280;31529;51.158;7.354;2022-11-18T00:09:10;96023.03;;;9.99;87.40
45247;BME280;31529;51.158;7.354;2022-11-18T00:09:41;96025.69;;;9.99;87.51
45247;BME280;31529;51.158;7.354;2022-11-18T00:10:14;96032.13;;;9.97;86.94
45247;BME280;31529;51.158;7.354;2022-11-18T00:10:51;96028.25;;;9.95;87.35
45247;BME280;31529;51.158;7.354;2022-11-18T00:11:24;96017.25;;;9.96;87.56
45247;BME280;31529;51.158;7.354;2022-11-18T00:12:18;96016.94;;;9.98;87.44
45247;BME280;31529;51.158;7.354;2022-11-18T00:13:10;96022.72;;;10.00;88.24
45247;BME280;31529;51.158;7.354;2022-11-18T00:14:05;96023.16;;;10.02;88.40
45247;BME280;31529;51.158;7.354;2022-11-18T00:14:53;96026.28;;;10.04;88.52
45247;BME280;31529;51.158;7.354;2022-11-18T00:15:26;96026.28;;;10.04;88.56
45247;BME280;31529;51.158;7.354;2022-11-18T00:16:04;96026.72;;;10.06;88.58
45247;BME280;31529;51.158;7.354;2022-11-18T00:16:55;96030.97;;;10.07;88.34
45247;BME280;31529;51.158;7.354;2022-11-18T00:17:34;96031.75;;;10.08;88.65
45247;BME280;31529;51.158;7.354;2022-11-18T00:18:06;96035.63;;;10.10;88.70
45247;BME280;31529;51.158;7.354;2022-11-18T00:18:42;96037.53;;;10.10;88.74
45247;BME280;31529;51.158;7.354;2022-11-18T00:19:13;96029.19;;;10.11;88.44
45247;BME280;31529;51.158;7.354;2022-11-18T00:19:44;96030.75;;;10.12;89.25
45247;BME280;31529;51.158;7.354;2022-11-18T00:20:17;96029.66;;;10.13;88.60
45247;BME280;31529;51.158;7.354;2022-11-18T00:20:48;96028.22;;;10.16;89.25
45247;BME280;31529;51.158;7.354;2022-11-18T00:21:19;96030.09;;;10.15;89.21
45247;BME280;31529;51.158;7.354;2022-11-18T00:21:50;96026.66;;;10.15;88.67
45247;BME280;31529;51.158;7.354;2022-11-18T00:22:21;96028.09;;;10.12;89.43
45247;BME280;31529;51.158;7.354;2022-11-18T00:22:57;96032.78;;;10.15;88.94
45247;BME280;31529;51.158;7.354;2022-11-18T00:23:29;96031.66;;;10.16;89.28
45247;BME280;31529;51.158;7.354;2022-11-18T00:24:00;96039.63;;;10.16;89.25
45247;BME280;31529;51.158;7.354;2022-11-18T00:24:32;96041.97;;;10.18;88.65
45247;BME280;31529;51.158;7.354;2022-11-18T00:25:03;96040.09;;;10.19;89.28
45247;BME280;31529;51.158;7.354;2022-11-18T00:25:34;96041.66;;;10.20;88.85
45247;BME280;31529;51.158;7.354;2022-11-18T00:26:06;95959.88;;;9.66;88.60
45247;BME280;31529;51.158;7.354;2022-11-18T00:26:39;96041.66;;;10.20;88.24
45247;BME280;31529;51.158;7.354;2022-11-18T00:27:10;96038.22;;;10.19;88.18
45247;BME280;31529;51.158;7.354;2022-11-18T00:27:41;96040.56;;;10.21;88.09
45247;BME280;31529;51.158;7.354;2022-11-18T00:28:12;96037.09;;;10.20;87.96
45247;BME280;31529;51.158;7.354;2022-11-18T00:28:43;96039.00;;;10.20;88.13
45247;BME280;31529;51.158;7.354;2022-11-18T00:29:14;96038.22;;;10.19;88.21
45247;BME280;31529;51.158;7.354;2022-11-18T00:29:46;96037.44;;;10.19;88.04
45247;BME280;31529;51.158;7.354;2022-11-18T00:30:17;96039.00;;;10.20;88.12
45247;BME280;31529;51.158;7.354;2022-11-18T00:30:48;96042.75;;;10.19;88.23
45247;BME280;31529;51.158;7.354;2022-11-18T00:31:19;96040.44;;;10.17;88.12
45247;BME280;31529;51.158;7.354;2022-11-18T00:31:50;96035.09;;;10.17;87.69
45247;BME280;31529;51.158;7.354;2022-11-18T00:32:21;96040.44;;;10.17;87.84
45247;BME280;31529;51.158;7.354;2022-11-18T00:32:52;96035.44;;;10.15;87.80
45247;BME280;31529;51.158;7.354;2022-11-18T00:33:23;96041.84;;;10.14;88.34
45247;BME280;31529;51.158;7.354;2022-11-18T00:33:55;96039.50;;;10.13;88.03
45247;BME280;31529;51.158;7.354;2022-11-18T00:34:26;96037.97;;;10.12;88.32
45247;BME280;31529;51.158;7.354;2022-11-18T00:34:57;96042.19;;;10.13;88.85
45247;BME280;31529;51.158;7.354;2022-11-18T00:35:28;96045.97;;;10.12;88.76
45247;BME280;31529;51.158;7.354;2022-11-18T00:35:59;96045.19;;;10.11;88.83
45247;BME280;31529;51.158;7.354;2022-11-18T00:36:30;96045.19;;;10.11;88.78
45247;BME280;31529;51.158;7.354;2022-11-18T00:37:01;96050.53;;;10.11;87.82
45247;BME280;31529;51.158;7.354;2022-11-18T00:37:33;96037.53;;;10.10;87.95
45247;BME280;31529;51.158;7.354;2022-11-18T00:38:04;95964.47;;;9.56;87.78
45247;BME280;31529;51.158;7.354;2022-11-18T00:38:35;96050.06;;;10.09;88.18
45247;BME280;31529;51.158;7.354;2022-11-18T00:39:07;96043.16;;;10.08;87.53
45247;BME280;31529;51.158;7.354;2022-11-18T00:39:40;96042.72;;;10.06;87.77
45247;BME280;31529;51.158;7.354;2022-11-18T00:40:11;96049.63;;;10.07;88.09
45247;BME280;31529;51.158;7.354;2022-11-18T00:40:42;96046.97;;;10.07;88.24
45247;BME280;31529;51.158;7.354;2022-11-18T00:41:14;96046.97;;;10.07;88.58
45247;BME280;31529;51.158;7.354;2022-11-18T00:41:46;96040.06;;;10.06;88.52
45247;BME280;31529;51.158;7.354;2022-11-18T00:42:35;96045.38;;;10.06;88.77
45247;BME280;31529;51.158;7.354;2022-11-18T00:43:22;96046.47;;;10.05;88.60
45247;BME280;31529;51.158;7.354;2022-11-18T00:43:53;96046.69;;;10.00;88.15
45247;BME280;31529;51.158;7.354;2022-11-18T00:44:24;96045.56;;;10.01;88.48
45247;BME280;31529;51.158;7.354;2022-11-18T00:44:55;96045.56;;;10.01;88.60
45247;BME280;31529;51.158;7.354;2022-11-18T00:45:27;96040.25;;;10.01;88.32
45247;BME280;31529;51.158;7.354;2022-11-18T00:45:58;96046.69;;;10.00;88.50
45247;BME280;31529;51.158;7.354;2022-11-18T00:46:29;96049.69;;;9.99;87.87
45247;BME280;31529;51.158;7.354;2022-11-18T00:47:00;96045.91;;;10.00;88.74
45247;BME280;31529;51.158;7.354;2022-11-18T00:47:31;96041.69;;;9.99;87.82
45247;BME280;31529;51.158;7.354;2022-11-18T00:48:03;96041.22;;;9.96;88.36
45247;BME280;31529;51.158;7.354;2022-11-18T00:48:34;96038.25;;;9.98;88.73
45247;BME280;31529;51.158;7.354;2022-11-18T00:49:06;96044.66;;;9.97;88.65
45247;BME280;31529;51.158;7.354;2022-11-18T00:49:37;96045.78;;;9.96;88.64
45247;BME280;31529;51.158;7.354;2022-11-18T00:50:08;96047.34;;;9.97;88.79
45247;BME280;31529;51.158;7.354;2022-11-18T00:50:39;96045.78;;;9.96;87.83
45247;BME280;31529;51.158;7.354;2022-11-18T00:51:14;96053.78;;;9.96;88.49
45247;BME280;31529;51.158;7.354;2022-11-18T00:51:48;96053.78;;;9.96;87.95
45247;BME280;31529;51.158;7.354;2022-11-18T00:52:19;96044.84;;;9.92;88.63
45247;BME280;31529;51.158;7.354;2022-11-18T00:52:50;96047.38;;;9.88;88.85
45247;BME280;31529;51.158;7.354;2022-11-18T00:53:21;96049.75;;;9.90;88.82
45247;BME280;31529;51.158;7.354;2022-11-18T00:53:55;96048.66;;;9.91;88.29
45247;BME280;31529;51.158;7.354;2022-11-18T00:54:25;96048.66;;;9.91;88.41
45247;BME280;31529;51.158;7.354;2022-11-18T00:54:57;96049.41;;;9.91;88.43
45247;BME280;31529;51.158;7.354;2022-11-18T00:55:28;96052.06;;;9.91;88.10
45247;BME280;31529;51.158;7.354;2022-11-18T00:55:59;96055.50;;;9.92;88.28
45247;BME280;31529;51.158;7.354;2022-11-18T00:56:30;96055.50;;;9.92;88.48
45247;BME280;31529;51.158;7.354;2022-11-18T00:57:02;96052.84;;;9.92;87.84
45247;BME280;31529;51.158;7.354;2022-11-18T00:57:34;96053.97;;;9.91;87.66
45247;BME280;31529;51.158;7.354;2022-11-18T00:58:06;96047.06;;;9.90;87.95
45247;BME280;31529;51.158;7.354;2022-11-18T00:58:37;96050.53;;;9.90;87.99
45247;BME280;31529;51.158;7.354;2022-11-18T00:59:08;96043.97;;;9.88;87.28
45247;BME280;31529;51.158;7.354;2022-11-18T00:59:39;96048.06;;;9.85;87.44
45247;BME280;31529;51.158;7.354;2022-11-18T01:00:10;96054.16;;;9.86;87.52
45247;BME280;31529;51.158;7.354;2022-11-18T01:00:42;96050.72;;;9.85;88.00
45247;BME280;31529;51.158;7.354;2022-11-18T01:01:14;96055.28;;;9.85;88.00
45247;BME280;31529;51.158;7.354;2022-11-18T01:01:45;96049.50;;;9.83;88.26
45247;BME280;31529;51.158;7.354;2022-11-18T01:02:18;96057.16;;;9.84;88.03
45247;BME280;31529;51.158;7.354;2022-11-18T01:02:49;96054.16;;;9.86;87.73
45247;BME280;31529;51.158;7.354;2022-11-18T01:03:20;96055.28;;;9.85;88.00
45247;BME280;31529;51.158;7.354;2022-11-18T01:03:51;96055.28;;;9.85;88.21
45247;BME280;31529;51.158;7.354;2022-11-18T01:04:23;96056.81;;;9.86;87.98
45247;BME280;31529;51.158;7.354;2022-11-18T01:04:54;96056.81;;;9.86;88.36
45247;BME280;31529;51.158;7.354;2022-11-18T01:05:25;96054.47;;;9.84;88.20
45247;BME280;31529;51.158;7.354;2022-11-18T01:05:56;96056.81;;;9.86;88.41
45247;BME280;31529;51.158;7.354;2022-11-18T01:06:27;96056.06;;;9.85;88.33
45247;BME280;31529;51.158;7.354;2022-11-18T01:06:58;96056.81;;;9.86;88.13
45247;BME280;31529;51.158;7.354;2022-11-18T01:07:30;96052.28;;;9.86;88.46
45247;BME280;31529;51.158;7.354;2022-11-18T01:08:01;96057.94;;;9.85;88.01
45247;BME280;31529;51.158;7.354;2022-11-18T01:08:32;96056.38;;;9.84;88.64
45247;BME280;31529;51.158;7.354;2022-11-18T01:09:03;96057.94;;;9.85;88.39
45247;BME280;31529;51.158;7.354;2022-11-18T01:09:34;96057.59;;;9.86;89.16
45247;BME280;31529;51.158;7.354;2022-11-18T01:10:05;96061.06;;;9.87;88.90
45247;BME280;31529;51.158;7.354;2022-11-18T01:10:37;96058.41;;;9.87;88.44
45247;BME280;31529;51.158;7.354;2022-11-18T01:11:09;96058.41;;;9.87;88.73
45247;BME280;31529;51.158;7.354;2022-11-18T01:11:59;96062.59;;;9.88;89.11
45247;BME280;31529;51.158;7.354;2022-11-18T01:12:49;96064.94;;;9.89;88.89
45247;BME280;31529;51.158;7.354;2022-11-18T01:13:39;96067.63;;;9.89;89.75
45247;BME280;31529;51.158;7.354;2022-11-18T01:14:10;96065.72;;;9.90;89.07
45247;BME280;31529;51.158;7.354;2022-11-18T01:14:41;96069.97;;;9.91;89.36
45247;BME280;31529;51.158;7.354;2022-11-18T01:15:12;96066.16;;;9.92;89.00
45247;BME280;31529;51.158;7.354;2022-11-18T01:15:45;96069.28;;;9.94;89.37
45247;BME280;31529;51.158;7.354;2022-11-18T01:16:18;96063.50;;;9.92;89.87
45247;BME280;31529;51.158;7.354;2022-11-18T01:16:54;96062.09;;;9.94;89.36
45247;BME280;31529;51.158;7.354;2022-11-18T01:17:28;96065.22;;;9.96;89.32
45247;BME280;31529;51.158;7.354;2022-11-18T01:17:59;96064.09;;;9.97;90.07
45247;BME280;31529;51.158;7.354;2022-11-18T01:18:30;96071.75;;;9.99;89.67
45247;BME280;31529;51.158;7.354;2022-11-18T01:19:01;96069.09;;;9.99;89.31
45247;BME280;31529;51.158;7.354;2022-11-18T01:19:33;96074.88;;;10.01;89.11
45247;BME280;31529;51.158;7.354;2022-11-18T01:20:05;95988.94;;;9.50;89.65
45247;BME280;31529;51.158;7.354;2022-11-18T01:20:36;96065.81;;;10.02;88.92
45247;BME280;31529;51.158;7.354;2022-11-18T01:21:07;96071.13;;;10.02;89.08
45247;BME280;31529;51.158;7.354;2022-11-18T01:21:38;96069.56;;;10.01;89.37
45247;BME280;31529;51.158;7.354;2022-11-18T01:22:10;96056.31;;;9.92;89.34
45247;BME280;31529;51.158;7.354;2022-11-18T01:22:41;96071.75;;;9.99;88.55
45247;BME280;31529;51.158;7.354;2022-11-18T01:23:13;96068.00;;;10.00;89.35
45247;BME280;31529;51.158;7.354;2022-11-18T01:23:44;96078.66;;;10.00;88.86
45247;BME280;31529;51.158;7.354;2022-11-18T01:24:16;96076.00;;;10.00;89.18
45247;BME280;31529;51.158;7.354;2022-11-18T01:24:47;96076.31;;;9.99;88.54
45247;BME280;31529;51.158;7.354;2022-11-18T01:25:18;96082.41;;;9.99;88.42
45247;BME280;31529;51.158;7.354;2022-11-18T01:25:49;96082.41;;;9.99;88.69
45247;BME280;31529;51.158;7.354;2022-11-18T01:26:20;96077.09;;;9.99;89.10
45247;BME280;31529;51.158;7.354;2022-11-18T01:26:51;96079.75;;;9.99;89.11
45247;BME280;31529;51.158;7.354;2022-11-18T01:27:22;96078.22;;;9.98;89.47
45247;BME280;31529;51.158;7.354;2022-11-18T01:27:53;96080.88;;;9.98;89.51
45247;BME280;31529;51.158;7.354;2022-11-18T01:28:24;96077.88;;;10.00;88.84
45247;BME280;31529;51.158;7.354;2022-11-18T01:28:55;96077.88;;;10.00;89.48
45247;BME280;31529;51.158;7.354;2022-11-18T01:29:27;96076.00;;;10.00;88.91
45247;BME280;31529;51.158;7.354;2022-11-18T01:29:58;96079.31;;;9.97;89.59
45247;BME280;31529;51.158;7.354;2022-11-18T01:30:32;96074.75;;;9.97;89.12
45247;BME280;31529;51.158;7.354;2022-11-18T01:31:05;96078.22;;;9.98;88.72
45247;BME280;31529;51.158;7.354;2022-11-18T01:31:38;96079.00;;;9.99;89.52
45247;BME280;31529;51.158;7.354;2022-11-18T01:32:09;96081.66;;;9.99;88.65
45247;BME280;31529;51.158;7.354;2022-11-18T01:32:41;96073.97;;;9.97;88.59
45247;BME280;31529;51.158;7.354;2022-11-18T01:33:12;96084.63;;;9.97;88.86
45247;BME280;31529;51.158;7.354;2022-11-18T01:33:44;96083.88;;;9.96;89.24
45247;BME280;31529;51.158;7.354;2022-11-18T01:34:16;96078.53;;;9.96;89.29
45247;BME280;31529;51.158;7.354;2022-11-18T01:34:47;96084.94;;;9.95;89.37
45247;BME280;31529;51.158;7.354;2022-11-18T01:35:18;96075.41;;;9.94;89.58
45247;BME280;31529;51.158;7.354;2022-11-18T01:35:49;96083.72;;;9.93;88.97
45247;BME280;31529;51.158;7.354;2022-11-18T01:36:21;96086.06;;;9.94;89.68
45247;BME280;31529;51.158;7.354;2022-11-18T01:36:54;96088.28;;;9.92;88.85
45247;BME280;31529;51.158;7.354;2022-11-18T01:37:26;96082.97;;;9.92;89.30
45247;BME280;31529;51.158;7.354;2022-11-18T01:37:57;96085.16;;;9.90;89.77
45247;BME280;31529;51.158;7.354;2022-11-18T01:38:28;96082.81;;;9.89;89.82
45247;BME280;31529;51.158;7.354;2022-11-18T01:39:00;96080.63;;;9.91;90.05
45247;BME280;31529;51.158;7.354;2022-11-18T01:39:31;96087.03;;;9.90;90.14
45247;BME280;31529;51.158;7.354;2022-11-18T01:40:02;96084.38;;;9.90;89.97
45247;BME280;31529;51.158;7.354;2022-11-18T01:40:35;96082.16;;;9.92;90.39
45247;BME280;31529;51.158;7.354;2022-11-18T01:41:06;96083.72;;;9.93;90.08
45247;BME280;31529;51.158;7.354;2022-11-18T01:41:37;96085.63;;;9.92;90.47
45247;BME280;31529;51.158;7.354;2022-11-18T01:42:16;96089.50;;;9.95;90.37
45247;BME280;31529;51.158;7.354;2022-11-18T01:42:47;96079.63;;;9.95;89.43
45247;BME280;31529;51.158;7.354;2022-11-18T01:43:19;96089.50;;;9.95;89.42
45247;BME280;31529;51.158;7.354;2022-11-18T01:45:37;96086.41;;;9.93;89.95
45247;BME280;31529;51.158;7.354;2022-11-18T01:46:09;96086.06;;;9.94;90.11
45247;BME280;31529;51.158;7.354;2022-11-18T01:46:41;96086.06;;;9.94;89.80
45247;BME280;31529;51.158;7.354;2022-11-18T01:47:12;96082.59;;;9.94;89.67
45247;BME280;31529;51.158;7.354;2022-11-18T01:47:51;96081.53;;;9.95;89.67
45247;BME280;31529;51.158;7.354;2022-11-18T01:48:31;96089.19;;;9.96;89.61
45247;BME280;31529;51.158;7.354;2022-11-18T01:49:05;96089.50;;;9.95;88.96
45247;BME280;31529;51.158;7.354;2022-11-18T01:49:41;96080.75;;;9.94;89.18
45247;BME280;31529;51.158;7.354;2022-11-18T01:50:12;96083.72;;;9.93;89.13
45247;BME280;31529;51.158;7.354;2022-11-18T01:50:56;96088.28;;;9.92;89.53
45247;BME280;31529;51.158;7.354;2022-11-18T01:51:34;96088.59;;;9.91;88.89
45247;BME280;31529;51.158;7.354;2022-11-18T01:52:14;96083.91;;;9.88;89.52
45247;BME280;31529;51.158;7.354;2022-11-18T01:52:45;96080.16;;;9.89;88.91
45247;BME280;31529;51.158;7.354;2022-11-18T01:53:19;96082.03;;;9.88;89.12
45247;BME280;31529;51.158;7.354;2022-11-18T01:53:56;96088.16;;;9.89;89.29
45247;BME280;31529;51.158;7.354;2022-11-18T01:54:33;96085.03;;;9.87;89.23
45247;BME280;31529;51.158;7.354;2022-11-18T01:55:12;96086.56;;;9.88;89.55
45247;BME280;31529;51.158;7.354;2022-11-18T01:55:54;96086.56;;;9.88;89.66
45247;BME280;31529;51.158;7.354;2022-11-18T01:56:32;96091.44;;;9.86;89.60
45247;BME280;31529;51.158;7.354;2022-11-18T01:57:13;96090.22;;;9.83;89.77
45247;BME280;31529;51.158;7.354;2022-11-18T01:57:50;96091.63;;;9.81;90.33
45247;BME280;31529;51.158;7.354;2022-11-18T01:58:28;96090.53;;;9.82;90.00
45247;BME280;31529;51.158;7.354;2022-11-18T01:59:09;96099.75;;;9.84;90.53
45247;BME280;31529;51.158;7.354;2022-11-18T01:59:43;96087.88;;;9.82;89.77
45247;BME280;31529;51.158;7.354;2022-11-18T02:00:18;96089.44;;;9.83;89.49
45247;BME280;31529;51.158;7.354;2022-11-18T02:00:50;96093.22;;;9.82;90.14
45247;BME280;31529;51.158;7.354;2022-11-18T02:01:21;96091.19;;;9.78;90.33
45247;BME280;31529;51.158;7.354;2022-11-18T02:01:55;96088.19;;;9.80;90.46
45247;BME280;31529;51.158;7.354;2022-11-18T02:02:27;96091.97;;;9.79;90.44
45247;BME280;31529;51.158;7.354;2022-11-18T02:03:02;96086.31;;;9.81;89.72
45247;BME280;31529;51.158;7.354;2022-11-18T02:03:34;96086.31;;;9.81;89.50
45247;BME280;31529;51.158;7.354;2022-11-18T02:04:06;96087.88;;;9.82;89.86
45247;BME280;31529;51.158;7.354;2022-11-18T02:04:39;96086.66;;;9.79;89.79
45247;BME280;31529;51.158;7.354;2022-11-18T02:05:13;96091.63;;;9.81;89.37
45247;BME280;31529;51.158;7.354;2022-11-18T02:05:46;96092.75;;;9.80;89.55
45247;BME280;31529;51.158;7.354;2022-11-18T02:06:19;96093.84;;;9.78;88.51
45247;BME280;31529;51.158;7.354;2022-11-18T02:06:51;96096.50;;;9.78;88.64
45247;BME280;31529;51.158;7.354;2022-11-18T02:07:22;96091.19;;;9.78;89.41
45247;BME280;31529;51.158;7.354;2022-11-18T02:07:54;96092.31;;;9.77;89.08
45247;BME280;31529;51.158;7.354;2022-11-18T02:08:27;96096.06;;;9.76;89.43
45247;BME280;31529;51.158;7.354;2022-11-18T02:09:00;96091.53;;;9.77;89.43
45247;BME280;31529;51.158;7.354;2022-11-18T02:09:31;96091.53;;;9.77;89.40
45247;BME280;31529;51.158;7.354;2022-11-18T02:10:03;96096.84;;;9.77;89.56
45247;BME280;31529;51.158;7.354;2022-11-18T02:10:35;96090.41;;;9.78;89.55
45247;BME280;31529;51.158;7.354;2022-11-18T02:11:10;96102.63;;;9.79;89.64
45247;BME280;31529;51.158;7.354;2022-11-18T02:12:03;96100.75;;;9.80;89.67
45247;BME280;31529;51.158;7.354;2022-11-18T02:12:36;96099.63;;;9.81;89.79
45247;BME280;31529;51.158;7.354;2022-11-18T02:13:07;96100.44;;;9.81;89.45
45247;BME280;31529;51.158;7.354;2022-11-18T02:13:39;96098.53;;;9.82;90.11
45247;BME280;31529;51.158;7.354;2022-11-18T02:14:10;96101.66;;;9.84;89.97
45247;BME280;31529;51.158;7.354;2022-11-18T02:14:42;96095.88;;;9.82;90.24
45247;BME280;31529;51.158;7.354;2022-11-18T02:15:18;96096.31;;;9.84;90.35
45247;BME280;31529;51.158;7.354;2022-11-18T02:17:51;96096.91;;;9.89;90.42
45247;BME280;31529;51.158;7.354;2022-11-18T02:18:36;96104.59;;;9.91;89.84
45247;BME280;31529;51.158;7.354;2022-11-18T02:23:56;96099.72;;;9.93;89.42
45247;BME280;31529;51.158;7.354;2022-11-18T02:26:16;96109.31;;;9.85;88.95
45247;BME280;31529;51.158;7.354;2022-11-18T02:29:44;96119.38;;;9.80;88.73
45247;BME280;31529;51.158;7.354;2022-11-18T02:30:31;96118.63;;;9.79;88.95
45247;BME280;31529;51.158;7.354;2022-11-18T02:31:17;96115.16;;;9.78;89.36
45247;BME280;31529;51.158;7.354;2022-11-18T02:32:39;96120.16;;;9.80;89.36
45247;BME280;31529;51.158;7.354;2022-11-18T02:33:16;96128.59;;;9.82;89.23
45247;BME280;31529;51.158;7.354;2022-11-18T02:33:58;96122.97;;;9.84;89.22
45247;BME280;31529;51.158;7.354;2022-11-18T02:34:49;96122.66;;;9.85;89.28
45247;BME280;31529;51.158;7.354;2022-11-18T02:36:12;96125.44;;;9.89;89.45
45247;BME280;31529;51.158;7.354;2022-11-18T02:37:02;96029.63;;;9.29;89.81
45247;BME280;31529;51.158;7.354;2022-11-18T02:37:42;96127.13;;;9.93;89.81
45247;BME280;31529;51.158;7.354;2022-11-18T02:38:23;96123.06;;;9.96;90.55
45247;BME280;31529;51.158;7.354;2022-11-18T02:38:59;96123.50;;;9.98;90.51
45247;BME280;31529;51.158;7.354;2022-11-18T02:39:37;96118.63;;;10.00;90.53
45247;BME280;31529;51.158;7.354;2022-11-18T02:41:06;96119.72;;;9.99;89.91
45247;BME280;31529;51.158;7.354;2022-11-18T02:41:41;96119.41;;;10.01;90.04
45247;BME280;31529;51.158;7.354;2022-11-18T02:42:16;96121.44;;;10.04;90.39
45247;BME280;31529;51.158;7.354;2022-11-18T02:42:49;96127.22;;;10.06;89.94
45247;BME280;31529;51.158;7.354;2022-11-18T02:43:33;96125.31;;;10.06;89.90
45247;BME280;31529;51.158;7.354;2022-11-18T02:44:11;96125.78;;;10.08;90.43
45247;BME280;31529;51.158;7.354;2022-11-18T02:44:49;96118.56;;;10.09;90.37
45247;BME280;31529;51.158;7.354;2022-11-18T02:45:25;96124.69;;;10.09;90.06
45247;BME280;31529;51.158;7.354;2022-11-18T02:46:00;96121.66;;;10.11;90.16
45247;BME280;31529;51.158;7.354;2022-11-18T02:46:36;96124.00;;;10.12;89.68
45247;BME280;31529;51.158;7.354;2022-11-18T02:47:10;96122.94;;;10.13;90.59
45247;BME280;31529;51.158;7.354;2022-11-18T02:47:45;96118.38;;;10.14;90.14
45247;BME280;31529;51.158;7.354;2022-11-18T02:48:19;96123.38;;;10.15;90.01
45247;BME280;31529;51.158;7.354;2022-11-18T02:48:54;96116.94;;;10.16;89.88
45247;BME280;31529;51.158;7.354;2022-11-18T02:49:31;96116.94;;;10.16;90.55
45247;BME280;31529;51.158;7.354;2022-11-18T02:50:09;96122.72;;;10.19;90.24
45247;BME280;31529;51.158;7.354;2022-11-18T02:50:45;96022.25;;;9.56;89.64
45247;BME280;31529;51.158;7.354;2022-11-18T02:51:21;96121.63;;;10.20;89.55
45247;BME280;31529;51.158;7.354;2022-11-18T02:51:55;96122.38;;;10.20;90.06
45247;BME280;31529;51.158;7.354;2022-11-18T02:52:27;96120.53;;;10.21;89.51
45247;BME280;31529;51.158;7.354;2022-11-18T02:53:02;96119.72;;;10.20;89.52
45247;BME280;31529;51.158;7.354;2022-11-18T02:53:37;96115.19;;;10.21;89.87
45247;BME280;31529;51.158;7.354;2022-11-18T02:54:10;96119.72;;;10.20;89.50
45247;BME280;31529;51.158;7.354;2022-11-18T02:54:43;96125.06;;;10.20;89.57
45247;BME280;31529;51.158;7.354;2022-11-18T02:55:17;96116.28;;;10.20;90.30
45247;BME280;31529;51.158;7.354;2022-11-18T02:55:50;96119.41;;;10.22;90.12
45247;BME280;31529;51.158;7.354;2022-11-18T02:56:23;96120.53;;;10.21;90.38
45247;BME280;31529;51.158;7.354;2022-11-18T02:56:56;96127.41;;;10.22;90.24
45247;BME280;31529;51.158;7.354;2022-11-18T02:57:28;96122.84;;;10.22;89.56
45247;BME280;31529;51.158;7.354;2022-11-18T02:58:01;96122.06;;;10.22;90.28
45247;BME280;31529;51.158;7.354;2022-11-18T02:58:35;96122.06;;;10.22;90.13
45247;BME280;31529;51.158;7.354;2022-11-18T02:59:06;96120.53;;;10.21;90.11
45247;BME280;31529;51.158;7.354;2022-11-18T02:59:37;96128.16;;;10.22;90.50
45247;BME280;31529;51.158;7.354;2022-11-18T03:00:08;96125.84;;;10.21;90.47
45247;BME280;31529;51.158;7.354;2022-11-18T03:00:39;96126.31;;;10.23;90.02
45247;BME280;31529;51.158;7.354;2022-11-18T03:01:17;96126.94;;;10.20;90.77
45247;BME280;31529;51.158;7.354;2022-11-18T03:01:51;96124.91;;;10.16;90.89
45247;BME280;31529;51.158;7.354;2022-11-18T03:02:22;96127.59;;;10.16;91.01
45247;BME280;31529;51.158;7.354;2022-11-18T03:02:53;96124.91;;;10.16;90.87
45247;BME280;31529;51.158;7.354;2022-11-18T03:03:28;96127.41;;;10.22;90.24
45247;BME280;31529;51.158;7.354;2022-11-18T03:03:59;96125.97;;;10.24;90.87
45247;BME280;31529;51.158;7.354;2022-11-18T03:04:30;96125.63;;;10.26;90.03
45247;BME280;31529;51.158;7.354;2022-11-18T03:05:04;96133.31;;;10.27;90.33
45247;BME280;31529;51.158;7.354;2022-11-18T03:05:39;96127.66;;;10.29;90.48
45247;BME280;31529;51.158;7.354;2022-11-18T03:06:32;96127.38;;;10.30;89.89
45247;BME280;31529;51.158;7.354;2022-11-18T03:07:10;96133.47;;;10.31;90.39
45247;BME280;31529;51.158;7.354;2022-11-18T03:07:45;96132.34;;;10.32;89.97
45247;BME280;31529;51.158;7.354;2022-11-18T03:08:22;96139.25;;;10.33;89.92
45247;BME280;31529;51.158;7.354;2022-11-18T03:09:00;96131.25;;;10.33;90.55
45247;BME280;31529;51.158;7.354;2022-11-18T03:09:50;96134.38;;;10.35;89.89
45247;BME280;31529;51.158;7.354;2022-11-18T03:10:22;96134.84;;;10.37;90.55
45247;BME280;31529;51.158;7.354;2022-11-18T03:11:01;96135.28;;;10.39;90.44
45247;BME280;31529;51.158;7.354;2022-11-18T03:13:15;96143.09;;;10.44;89.64
45247;BME280;31529;51.158;7.354;2022-11-18T03:14:14;96136.66;;;10.45;89.76
45247;BME280;31529;51.158;7.354;2022-11-18T03:16:06;96141.19;;;10.45;90.00
45247;BME280;31529;51.158;7.354;2022-11-18T03:16:48;96147.34;;;10.45;90.00
45247;BME280;31529;51.158;7.354;2022-11-18T03:17:31;96144.66;;;10.45;89.19
45247;BME280;31529;51.158;7.354;2022-11-18T03:19:02;96143.53;;;10.46;89.61
45247;BME280;31529;51.158;7.354;2022-11-18T03:20:46;96145.75;;;10.44;89.65
45247;BME280;31529;51.158;7.354;2022-11-18T03:21:24;96144.19;;;10.43;89.83
45247;BME280;31529;51.158;7.354;2022-11-18T03:22:18;96148.75;;;10.43;89.52